Time;durP1;ratioP1;P1;durP2;ratioP2;P2;SDS_P1;SDS_P2;PMS_P1;PMS_P2;Temp;Humidity;BMP_temperature;BMP_pressure;BME280_temperature;BME280_humidity;BME280_pressure;Samples;Min_cycle;Max_cycle;Signal;HPM_P1;HPM_P2
2023/09/08 00:00:10;;;;;;;6.20;4.50;;;22.10;51.20;;;;;;4982044;28;20054;-45
2023/09/08 00:02:37;;;;;;;7.88;4.72;;;22.00;51.10;;;;;;4981584;28;20519;-54
2023/09/08 00:05:05;;;;;;;6.88;4.03;;;22.00;51.10;;;;;;4980430;28;20054;-51
2023/09/08 00:07:33;;;;;;;9.52;4.60;;;22.00;51.30;;;;;;4981999;28;20487;-48
2023/09/08 00:10:00;;;;;;;6.53;4.07;;;22.00;51.40;;;;;;4982239;28;20066;-44
2023/09/08 00:12:27;;;;;;;5.78;3.80;;;21.90;51.40;;;;;;4985178;28;20434;-48
2023/09/08 00:14:56;;;;;;;5.13;4.03;;;21.90;51.50;;;;;;4986440;28;20061;-49
2023/09/08 00:17:23;;;;;;;8.80;4.93;;;21.90;51.50;;;;;;4985840;28;20070;-45
2023/09/08 00:19:50;;;;;;;6.07;4.30;;;21.90;51.50;;;;;;4983743;28;21509;-46
2023/09/08 00:22:18;;;;;;;6.57;4.38;;;21.80;51.50;;;;;;4985119;28;20062;-46
2023/09/08 00:24:45;;;;;;;5.22;4.13;;;21.80;51.50;;;;;;4985332;28;20061;-55
2023/09/08 00:27:12;;;;;;;5.95;4.32;;;21.80;51.60;;;;;;4985385;28;20422;-55
2023/09/08 00:29:39;;;;;;;5.82;4.18;;;21.80;51.60;;;;;;4985750;28;20054;-54
2023/09/08 00:32:08;;;;;;;6.95;4.70;;;21.80;51.70;;;;;;4985708;28;20085;-55
2023/09/08 00:34:35;;;;;;;4.65;3.83;;;21.80;51.70;;;;;;4984757;28;20054;-55
2023/09/08 00:37:06;;;;;;;6.72;4.30;;;21.80;51.80;;;;;;4983971;28;20491;-55
2023/09/08 00:39:36;;;;;;;7.68;4.13;;;21.80;51.80;;;;;;4985700;28;20130;-55
2023/09/08 00:42:03;;;;;;;6.43;4.38;;;21.80;51.90;;;;;;4986450;28;20057;-55
2023/09/08 00:44:31;;;;;;;5.88;4.28;;;21.80;51.90;;;;;;4984853;28;20054;-55
2023/09/08 00:46:58;;;;;;;8.00;4.30;;;21.70;51.90;;;;;;4984476;28;20059;-55
2023/09/08 00:49:28;;;;;;;6.45;3.97;;;21.70;52.00;;;;;;4983562;28;20058;-55
2023/09/08 00:51:56;;;;;;;6.43;4.70;;;21.70;52.00;;;;;;4984156;28;20492;-54
2023/09/08 00:54:23;;;;;;;8.90;4.57;;;21.70;52.00;;;;;;4984089;28;20058;-54
2023/09/08 00:56:56;;;;;;;6.07;4.18;;;21.70;52.10;;;;;;4985746;28;20059;-54
2023/09/08 00:59:24;;;;;;;6.20;3.97;;;21.60;52.00;;;;;;4984993;28;20061;-53
2023/09/08 01:01:51;;;;;;;7.80;4.50;;;21.70;52.10;;;;;;4983442;28;20164;-56
2023/09/08 01:04:19;;;;;;;6.50;4.05;;;21.60;52.10;;;;;;4984343;28;20618;-46
2023/09/08 01:06:48;;;;;;;5.63;4.30;;;21.60;52.10;;;;;;4983036;28;20050;-46
2023/09/08 01:09:15;;;;;;;6.22;4.03;;;21.60;52.10;;;;;;4984984;28;20065;-51
2023/09/08 01:11:42;;;;;;;6.45;4.60;;;21.60;52.20;;;;;;4984801;28;20419;-56
2023/09/08 01:14:13;;;;;;;7.07;4.47;;;21.50;52.10;;;;;;4984547;28;20054;-49
2023/09/08 01:16:41;;;;;;;5.95;4.78;;;21.50;52.10;;;;;;4984542;28;20054;-49
2023/09/08 01:19:12;;;;;;;4.75;3.90;;;21.50;52.10;;;;;;4984173;28;20062;-51
2023/09/08 01:22:07;;;;;;;5.45;4.03;;;21.50;52.20;;;;;;4981851;28;20418;-48
2023/09/08 01:25:10;;;;;;;5.32;4.15;;;21.40;52.20;;;;;;4984951;28;20054;-50
2023/09/08 01:27:39;;;;;;;7.63;4.80;;;21.40;52.30;;;;;;4983823;28;20058;-53
2023/09/08 01:30:08;;;;;;;6.10;4.20;;;21.40;52.20;;;;;;4984876;28;20502;-56
2023/09/08 01:32:36;;;;;;;6.20;4.43;;;21.40;52.20;;;;;;4984393;28;20065;-45
2023/09/08 01:35:04;;;;;;;6.80;4.40;;;21.40;52.30;;;;;;4982722;28;20069;-47
2023/09/08 01:37:31;;;;;;;5.63;3.90;;;21.30;52.20;;;;;;4984443;28;20050;-46
2023/09/08 01:39:58;;;;;;;4.95;3.88;;;21.30;52.30;;;;;;4984597;28;20062;-47
2023/09/08 01:42:27;;;;;;;6.50;3.92;;;21.30;52.40;;;;;;4983933;28;20054;-46
2023/09/08 01:44:54;;;;;;;5.70;4.47;;;21.30;52.40;;;;;;4984305;28;20054;-48
2023/09/08 01:47:21;;;;;;;6.40;4.47;;;21.30;52.50;;;;;;4983131;28;20046;-47
2023/09/08 01:49:49;;;;;;;5.53;4.10;;;21.30;52.50;;;;;;4981989;28;20062;-51
2023/09/08 01:52:16;;;;;;;11.52;4.20;;;21.20;52.50;;;;;;4983502;28;20065;-50
2023/09/08 01:54:43;;;;;;;5.55;4.15;;;21.20;52.50;;;;;;4983854;28;20061;-50
2023/09/08 01:57:10;;;;;;;5.63;4.10;;;21.20;52.60;;;;;;4984709;28;20061;-46
2023/09/08 01:59:39;;;;;;;5.78;4.28;;;21.20;52.60;;;;;;4983201;28;20558;-49
2023/09/08 02:02:07;;;;;;;6.57;4.22;;;21.20;52.70;;;;;;4983678;28;20062;-55
2023/09/08 02:04:34;;;;;;;6.50;3.90;;;21.20;52.60;;;;;;4983316;28;20062;-48
2023/09/08 02:07:03;;;;;;;5.45;4.30;;;21.10;52.60;;;;;;4982897;28;20418;-47
2023/09/08 02:09:35;;;;;;;6.78;4.45;;;21.10;52.60;;;;;;4983163;28;20050;-46
2023/09/08 02:12:03;;;;;;;5.47;4.25;;;21.10;52.70;;;;;;4984208;28;20534;-45
2023/09/08 02:14:30;;;;;;;5.57;4.28;;;21.10;52.70;;;;;;4983041;28;20081;-55
2023/09/08 02:16:59;;;;;;;5.60;4.00;;;21.10;52.70;;;;;;4983272;28;20426;-56
2023/09/08 02:19:26;;;;;;;5.65;4.05;;;21.10;52.90;;;;;;4982933;28;20517;-56
2023/09/08 02:21:53;;;;;;;5.53;4.05;;;21.10;52.80;;;;;;4982190;28;20057;-54
2023/09/08 02:24:20;;;;;;;6.75;4.70;;;21.10;52.80;;;;;;4983249;28;20054;-55
2023/09/08 02:26:54;;;;;;;6.85;4.10;;;21.00;52.80;;;;;;4983366;28;20422;-56
2023/09/08 02:29:22;;;;;;;6.13;3.87;;;21.00;52.90;;;;;;4983212;28;20050;-56
2023/09/08 02:31:49;;;;;;;5.82;4.13;;;21.00;52.90;;;;;;4982913;28;20426;-55
2023/09/08 02:34:18;;;;;;;6.32;4.22;;;21.00;52.90;;;;;;4982736;28;20066;-55
2023/09/08 02:36:47;;;;;;;5.28;3.95;;;21.00;52.90;;;;;;4981176;28;20054;-53
2023/09/08 02:39:14;;;;;;;8.10;4.55;;;21.00;52.90;;;;;;4983217;28;20061;-55
2023/09/08 02:41:42;;;;;;;6.43;4.68;;;20.90;52.90;;;;;;4982707;28;20058;-54
2023/09/08 02:44:09;;;;;;;6.30;4.20;;;20.90;52.90;;;;;;4982656;28;20383;-56
2023/09/08 02:46:36;;;;;;;6.25;4.78;;;20.90;53.00;;;;;;4982356;28;20065;-56
2023/09/08 02:49:04;;;;;;;5.57;3.85;;;20.90;52.90;;;;;;4983292;28;20054;-55
2023/09/08 02:51:32;;;;;;;7.10;4.03;;;20.90;53.00;;;;;;4981994;28;20057;-55
2023/09/08 02:54:00;;;;;;;5.95;4.20;;;20.90;53.00;;;;;;4982955;28;20054;-55
2023/09/08 02:56:27;;;;;;;6.38;4.25;;;20.90;53.00;;;;;;4982902;28;20065;-56
2023/09/08 02:58:54;;;;;;;6.38;4.07;;;20.80;53.00;;;;;;4982571;28;20509;-55
2023/09/08 03:01:22;;;;;;;5.97;4.40;;;20.80;53.10;;;;;;4982449;28;20065;-54
2023/09/08 03:03:49;;;;;;;6.40;4.35;;;20.80;53.10;;;;;;4982642;28;20063;-56
2023/09/08 03:06:20;;;;;;;8.52;4.10;;;20.80;53.20;;;;;;4981350;28;20525;-55
2023/09/08 03:08:49;;;;;;;6.05;4.07;;;20.80;53.20;;;;;;4981799;28;20061;-55
2023/09/08 03:11:16;;;;;;;5.93;3.65;;;20.80;53.20;;;;;;4982832;28;20058;-56
2023/09/08 03:13:43;;;;;;;7.68;4.10;;;20.80;53.20;;;;;;4982903;28;20403;-55
2023/09/08 03:16:11;;;;;;;5.30;3.70;;;20.70;53.20;;;;;;4981737;28;20073;-55
2023/09/08 03:18:39;;;;;;;7.68;4.20;;;20.70;53.20;;;;;;4981815;28;20057;-55
2023/09/08 03:21:10;;;;;;;6.32;4.40;;;20.70;53.30;;;;;;4982279;28;20050;-56
2023/09/08 03:23:38;;;;;;;6.03;4.32;;;20.70;53.30;;;;;;4982924;28;20058;-53
2023/09/08 03:26:07;;;;;;;5.00;3.95;;;20.70;53.30;;;;;;4981152;28;20069;-44
2023/09/08 03:28:35;;;;;;;6.28;4.30;;;20.70;53.40;;;;;;4982026;28;20054;-47
2023/09/08 03:31:03;;;;;;;4.85;3.80;;;20.70;53.30;;;;;;4982286;28;20054;-46
2023/09/08 03:33:31;;;;;;;5.88;4.03;;;20.70;53.30;;;;;;4982662;28;20081;-46
2023/09/08 03:35:58;;;;;;;4.82;3.88;;;20.70;53.30;;;;;;4980971;28;20061;-46
2023/09/08 03:38:25;;;;;;;7.32;4.30;;;20.60;53.20;;;;;;4982242;28;20057;-45
2023/09/08 03:40:53;;;;;;;7.65;4.57;;;20.70;53.30;;;;;;4982365;28;20054;-47
2023/09/08 03:43:21;;;;;;;7.07;4.15;;;20.60;53.20;;;;;;4981746;28;20097;-45
2023/09/08 03:45:48;;;;;;;6.50;4.43;;;20.60;53.20;;;;;;4981182;28;20533;-49
2023/09/08 03:48:16;;;;;;;6.43;4.40;;;20.60;53.20;;;;;;4983161;28;20442;-51
2023/09/08 03:50:45;;;;;;;6.75;4.55;;;20.60;53.20;;;;;;4978845;28;20051;-51
2023/09/08 03:53:12;;;;;;;6.22;4.07;;;20.60;53.20;;;;;;4981670;28;20062;-47
2023/09/08 03:55:39;;;;;;;5.57;4.07;;;20.60;53.20;;;;;;4981848;28;20054;-46
2023/09/08 03:58:07;;;;;;;6.20;4.22;;;20.50;53.20;;;;;;4981925;28;20059;-47
2023/09/08 04:00:35;;;;;;;5.45;4.20;;;20.50;53.30;;;;;;4982412;28;20065;-48
2023/09/08 04:03:03;;;;;;;6.60;4.10;;;20.50;53.30;;;;;;4981416;28;20418;-48
2023/09/08 04:05:30;;;;;;;4.43;3.55;;;20.50;53.40;;;;;;4980080;28;20084;-47
2023/09/08 04:07:57;;;;;;;5.97;4.03;;;20.50;53.40;;;;;;4981042;28;20610;-46
2023/09/08 04:10:25;;;;;;;5.68;4.20;;;20.50;53.40;;;;;;4982223;28;20081;-44
2023/09/08 04:12:52;;;;;;;5.25;4.15;;;20.40;53.50;;;;;;4981577;28;20058;-46
2023/09/08 04:15:19;;;;;;;10.27;4.85;;;20.40;53.50;;;;;;4982396;28;20502;-45
2023/09/08 04:17:48;;;;;;;7.88;4.78;;;20.40;53.50;;;;;;4977805;28;20058;-46
2023/09/08 04:20:15;;;;;;;4.97;4.18;;;20.40;53.60;;;;;;4980588;28;20498;-51
2023/09/08 04:22:42;;;;;;;7.80;4.20;;;20.40;53.60;;;;;;4980770;28;20503;-45
2023/09/08 04:25:11;;;;;;;5.75;4.18;;;20.40;53.60;;;;;;4980705;28;20066;-45
2023/09/08 04:27:38;;;;;;;8.25;4.28;;;20.30;53.60;;;;;;4982405;28;20061;-46
2023/09/08 04:30:06;;;;;;;5.45;3.85;;;20.30;53.60;;;;;;4981375;28;20609;-46
2023/09/08 04:32:33;;;;;;;6.63;4.68;;;20.30;53.70;;;;;;4981679;28;20517;-47
2023/09/08 04:35:02;;;;;;;7.82;4.75;;;20.30;53.70;;;;;;4980086;28;20062;-50
2023/09/08 04:37:30;;;;;;;9.05;4.57;;;20.20;53.70;;;;;;4982252;28;20053;-55
2023/09/08 04:39:57;;;;;;;6.18;4.30;;;20.20;53.70;;;;;;4981400;28;20054;-56
2023/09/08 04:42:25;;;;;;;5.50;3.97;;;20.20;53.70;;;;;;4983124;28;20414;-55
2023/09/08 04:44:53;;;;;;;6.75;4.40;;;20.20;53.80;;;;;;4981146;28;20422;-55
2023/09/08 04:47:20;;;;;;;8.02;4.45;;;20.20;53.80;;;;;;4981996;28;20062;-55
2023/09/08 04:49:47;;;;;;;5.03;3.80;;;20.20;53.90;;;;;;4980627;28;20541;-55
2023/09/08 04:52:16;;;;;;;6.60;4.60;;;20.20;53.90;;;;;;4980709;28;20057;-54
2023/09/08 04:54:43;;;;;;;8.80;4.10;;;20.10;54.00;;;;;;4982010;28;20062;-55
2023/09/08 04:57:10;;;;;;;6.20;4.65;;;20.10;53.90;;;;;;4984009;28;20061;-55
2023/09/08 04:59:39;;;;;;;7.13;4.55;;;20.10;53.90;;;;;;4984127;28;20057;-55
2023/09/08 05:02:06;;;;;;;8.45;4.50;;;20.10;54.00;;;;;;4985056;28;20061;-55
2023/09/08 05:04:33;;;;;;;4.88;3.90;;;20.10;54.00;;;;;;4984200;28;20054;-54
2023/09/08 05:07:00;;;;;;;6.05;4.28;;;20.10;54.00;;;;;;4983581;28;20050;-55
2023/09/08 05:09:29;;;;;;;5.07;3.92;;;20.10;54.10;;;;;;4984027;28;20049;-56
2023/09/08 05:11:56;;;;;;;9.48;4.30;;;20.10;54.10;;;;;;4985088;28;20050;-55
2023/09/08 05:14:24;;;;;;;5.93;4.57;;;20.10;54.10;;;;;;4984037;28;20057;-55
2023/09/08 05:16:55;;;;;;;8.15;4.50;;;20.10;54.10;;;;;;4984098;28;20069;-55
2023/09/08 05:19:23;;;;;;;7.32;4.60;;;20.10;54.10;;;;;;4984338;28;20047;-55
2023/09/08 05:21:52;;;;;;;8.70;4.80;;;20.10;54.20;;;;;;4983292;28;20062;-55
2023/09/08 05:24:20;;;;;;;11.70;5.05;;;20.10;54.20;;;;;;4984656;28;20395;-54
2023/09/08 05:26:49;;;;;;;7.45;4.43;;;20.10;54.20;;;;;;4983503;28;20849;-56
2023/09/08 05:29:16;;;;;;;13.45;4.47;;;20.10;54.20;;;;;;4983476;28;20521;-54
2023/09/08 05:31:44;;;;;;;6.78;4.47;;;20.10;54.30;;;;;;4983386;28;20046;-55
2023/09/08 05:34:11;;;;;;;7.07;4.40;;;20.10;54.30;;;;;;4980447;28;20054;-57
2023/09/08 05:36:39;;;;;;;8.05;4.68;;;20.10;54.30;;;;;;4983734;28;20061;-55
2023/09/08 05:39:07;;;;;;;7.43;4.28;;;20.10;54.30;;;;;;4984587;28;20074;-56
2023/09/08 05:41:35;;;;;;;4.40;3.85;;;20.10;54.40;;;;;;4984358;28;20050;-54
2023/09/08 05:44:03;;;;;;;5.38;3.97;;;20.10;54.90;;;;;;4983435;28;20059;-54
2023/09/08 05:46:31;;;;;;;5.43;3.83;;;20.10;54.50;;;;;;4983018;28;20057;-54
2023/09/08 05:48:58;;;;;;;8.13;4.38;;;20.20;54.50;;;;;;4984760;28;20055;-55
2023/09/08 05:51:25;;;;;;;7.35;3.67;;;20.20;54.60;;;;;;4982455;28;20057;-56
2023/09/08 05:53:52;;;;;;;5.15;3.90;;;20.20;54.60;;;;;;4983882;28;20411;-56
2023/09/08 05:56:20;;;;;;;6.30;4.60;;;20.20;54.70;;;;;;4984435;28;20138;-56
2023/09/08 05:58:48;;;;;;;5.20;4.30;;;20.20;54.70;;;;;;4983582;28;20079;-55
2023/09/08 06:01:16;;;;;;;5.70;4.13;;;20.20;54.70;;;;;;4983417;28;20065;-56
2023/09/08 06:03:44;;;;;;;5.32;4.40;;;20.20;54.70;;;;;;4984775;28;20592;-56
2023/09/08 06:06:11;;;;;;;5.85;4.53;;;20.30;54.80;;;;;;4981865;28;20422;-56
2023/09/08 06:08:38;;;;;;;8.35;3.80;;;20.30;54.80;;;;;;4983432;28;20387;-56
2023/09/08 06:11:05;;;;;;;5.55;4.00;;;20.30;54.90;;;;;;4984180;28;20050;-55
2023/09/08 06:13:33;;;;;;;20.65;5.35;;;20.30;54.90;;;;;;4983668;28;20054;-55
2023/09/08 06:16:00;;;;;;;5.97;4.20;;;20.40;55.00;;;;;;4983737;28;20062;-54
2023/09/08 06:18:30;;;;;;;6.00;4.07;;;20.40;55.00;;;;;;4983426;28;20426;-56
2023/09/08 06:20:57;;;;;;;8.20;4.30;;;20.40;55.00;;;;;;4982476;28;20058;-56
2023/09/08 06:23:25;;;;;;;5.80;3.88;;;20.40;55.00;;;;;;4983276;28;20411;-56
2023/09/08 06:25:52;;;;;;;7.70;4.55;;;20.50;55.00;;;;;;4982890;28;20051;-55
2023/09/08 06:28:19;;;;;;;5.90;4.18;;;20.50;55.10;;;;;;4983703;28;20054;-54
2023/09/08 06:30:46;;;;;;;6.55;4.35;;;20.60;55.10;;;;;;4983779;28;20085;-55
2023/09/08 06:33:14;;;;;;;5.28;3.65;;;20.60;55.10;;;;;;4982278;28;20054;-55
2023/09/08 06:35:42;;;;;;;6.40;4.00;;;20.60;55.20;;;;;;4981760;28;20050;-55
2023/09/08 06:38:09;;;;;;;5.68;3.95;;;20.60;55.20;;;;;;4983254;28;20065;-56
2023/09/08 06:40:37;;;;;;;8.73;4.20;;;20.70;55.20;;;;;;4983432;28;20081;-56
2023/09/08 06:43:04;;;;;;;5.75;4.32;;;20.70;55.20;;;;;;4983704;28;20058;-55
2023/09/08 06:45:32;;;;;;;7.25;3.92;;;20.70;55.10;;;;;;4982714;28;20054;-56
2023/09/08 06:48:00;;;;;;;9.98;4.20;;;20.80;55.10;;;;;;4983120;28;20529;-56
2023/09/08 06:50:29;;;;;;;9.63;4.50;;;20.80;55.10;;;;;;4979767;28;20054;-56
2023/09/08 06:52:57;;;;;;;6.07;4.10;;;20.90;55.20;;;;;;4982996;28;20498;-56
2023/09/08 06:55:24;;;;;;;5.18;3.90;;;20.90;55.20;;;;;;4982631;28;20557;-50
2023/09/08 06:57:52;;;;;;;6.03;4.18;;;20.90;55.20;;;;;;4983411;28;20514;-46
2023/09/08 07:00:20;;;;;;;5.30;4.00;;;21.00;55.30;;;;;;4983020;28;20050;-50
2023/09/08 07:02:49;;;;;;;5.82;4.15;;;21.10;55.40;;;;;;4980548;28;20065;-48
2023/09/08 07:05:16;;;;;;;10.45;4.88;;;21.10;55.50;;;;;;4981285;28;20062;-50
2023/09/08 07:07:44;;;;;;;6.88;4.32;;;21.20;55.60;;;;;;4981641;28;20046;-46
2023/09/08 07:10:15;;;;;;;6.40;4.10;;;21.20;55.60;;;;;;4983489;28;20050;-51
2023/09/08 07:12:42;;;;;;;5.72;4.22;;;21.20;55.50;;;;;;4982103;28;20058;-45
2023/09/08 07:15:10;;;;;;;8.18;4.30;;;21.30;55.50;;;;;;4981689;28;20069;-50
2023/09/08 07:17:37;;;;;;;4.97;3.90;;;21.30;55.60;;;;;;4982215;28;20061;-50
2023/09/08 07:20:07;;;;;;;7.82;4.30;;;21.40;55.70;;;;;;4981775;28;20068;-49
2023/09/08 07:22:34;;;;;;;5.38;4.15;;;21.50;55.70;;;;;;4982654;28;20054;-46
2023/09/08 07:25:01;;;;;;;6.03;4.28;;;21.50;55.70;;;;;;4982207;28;20046;-56
2023/09/08 07:27:30;;;;;;;5.90;4.15;;;21.60;55.60;;;;;;4982713;28;20054;-52
2023/09/08 07:29:57;;;;;;;6.20;4.63;;;21.60;55.50;;;;;;4981989;28;20521;-49
2023/09/08 07:32:24;;;;;;;7.03;4.45;;;21.70;55.30;;;;;;4982730;28;20054;-46
2023/09/08 07:34:54;;;;;;;6.72;3.75;;;21.70;55.20;;;;;;4980756;28;20513;-47
2023/09/08 07:37:22;;;;;;;11.63;4.22;;;21.80;55.30;;;;;;4983029;28;20061;-52
2023/09/08 07:39:50;;;;;;;6.50;4.00;;;21.90;55.30;;;;;;4983164;28;20050;-45
2023/09/08 07:42:17;;;;;;;6.32;4.22;;;21.90;55.20;;;;;;4980731;28;20434;-48
2023/09/08 07:44:46;;;;;;;6.47;3.80;;;21.90;55.20;;;;;;4981943;28;20058;-46
2023/09/08 07:47:13;;;;;;;6.15;3.95;;;22.00;55.10;;;;;;4982104;28;20058;-52
2023/09/08 07:49:45;;;;;;;6.15;4.30;;;22.10;55.10;;;;;;4980828;28;20061;-51
2023/09/08 07:52:12;;;;;;;6.82;3.72;;;22.10;55.10;;;;;;4982812;28;20050;-56
2023/09/08 07:54:40;;;;;;;7.10;4.20;;;22.10;55.00;;;;;;4981586;28;20525;-54
2023/09/08 07:57:07;;;;;;;5.05;4.28;;;22.20;55.00;;;;;;4981860;28;20062;-52
2023/09/08 07:59:34;;;;;;;7.38;4.70;;;22.30;55.00;;;;;;4981551;28;20061;-50
2023/09/08 08:02:03;;;;;;;6.80;4.32;;;22.30;55.10;;;;;;4981248;28;20513;-50
2023/09/08 08:04:30;;;;;;;6.53;4.32;;;22.40;55.00;;;;;;4982036;28;20054;-56
2023/09/08 08:06:57;;;;;;;6.10;4.13;;;22.40;55.00;;;;;;4982188;28;20065;-56
2023/09/08 08:09:24;;;;;;;7.15;3.97;;;22.50;54.90;;;;;;4981389;28;20065;-56
2023/09/08 08:11:53;;;;;;;6.72;3.63;;;22.50;55.00;;;;;;4981515;28;20149;-54
2023/09/08 08:14:20;;;;;;;6.95;4.45;;;22.60;55.00;;;;;;4981291;28;20050;-55
2023/09/08 08:16:47;;;;;;;5.13;4.05;;;22.60;55.00;;;;;;4980525;28;20065;-55
2023/09/08 08:19:16;;;;;;;5.95;4.18;;;22.70;54.90;;;;;;4982340;28;20061;-55
2023/09/08 08:21:43;;;;;;;5.63;4.28;;;22.70;54.90;;;;;;4980040;28;20062;-55
2023/09/08 08:24:11;;;;;;;5.20;3.97;;;22.80;55.00;;;;;;4981514;28;20525;-56
2023/09/08 08:26:38;;;;;;;5.20;3.72;;;22.90;54.90;;;;;;4981869;28;20061;-54
2023/09/08 08:29:05;;;;;;;7.82;4.20;;;22.90;54.80;;;;;;4982160;28;20054;-54
2023/09/08 08:31:33;;;;;;;5.25;3.88;;;23.00;54.80;;;;;;4983982;28;20054;-55
2023/09/08 08:34:00;;;;;;;6.60;4.30;;;23.00;54.70;;;;;;4985732;28;20372;-54
2023/09/08 08:36:28;;;;;;;6.10;3.92;;;23.10;54.70;;;;;;4984132;28;20062;-54
2023/09/08 08:38:56;;;;;;;6.75;4.50;;;23.10;54.60;;;;;;4985319;28;20058;-56
2023/09/08 08:41:24;;;;;;;6.50;3.92;;;23.20;55.20;;;;;;4984857;28;20054;-57
2023/09/08 08:43:53;;;;;;;6.93;4.20;;;23.20;54.80;;;;;;4984830;28;20061;-56
2023/09/08 08:46:23;;;;;;;5.88;4.30;;;23.20;54.70;;;;;;4985825;28;20058;-56
2023/09/08 08:48:54;;;;;;;5.88;4.18;;;23.30;54.90;;;;;;4984958;28;20065;-55
2023/09/08 08:51:24;;;;;;;6.72;4.13;;;23.30;54.70;;;;;;4983292;28;20065;-55
2023/09/08 08:53:53;;;;;;;6.18;4.47;;;23.40;54.80;;;;;;4985206;28;20416;-55
2023/09/08 08:56:21;;;;;;;5.75;3.85;;;23.40;54.90;;;;;;4985083;28;20054;-56
2023/09/08 08:58:49;;;;;;;6.28;4.28;;;23.60;54.80;;;;;;4984758;28;20529;-55
2023/09/08 09:01:18;;;;;;;4.82;3.95;;;23.60;54.60;;;;;;4985128;28;20058;-52
2023/09/08 09:03:49;;;;;;;5.97;4.00;;;23.70;54.40;;;;;;4985002;28;20098;-55
2023/09/08 09:06:17;;;;;;;7.13;4.32;;;23.70;54.10;;;;;;4982220;28;20077;-54
2023/09/08 09:08:46;;;;;;;6.18;4.50;;;23.80;54.00;;;;;;4984768;28;20050;-56
2023/09/08 09:11:15;;;;;;;5.88;4.18;;;23.80;53.90;;;;;;4984392;28;20062;-55
2023/09/08 09:13:43;;;;;;;7.88;4.28;;;23.90;53.90;;;;;;4985000;28;20055;-45
2023/09/08 09:16:10;;;;;;;6.45;4.43;;;23.90;53.80;;;;;;4985313;28;20069;-46
2023/09/08 09:18:55;;;;;;;5.75;3.88;;;24.00;53.80;;;;;;4984735;28;20061;-53
2023/09/08 09:21:22;;;;;;;5.57;3.92;;;24.00;53.70;;;;;;4983681;28;20054;-48
2023/09/08 09:23:50;;;;;;;6.22;4.35;;;24.10;53.60;;;;;;4984114;28;20058;-45
2023/09/08 09:26:26;;;;;;;4.82;3.83;;;24.10;53.40;;;;;;4984507;28;20403;-46
2023/09/08 09:28:54;;;;;;;6.18;4.28;;;24.20;53.20;;;;;;4984122;28;20058;-52
2023/09/08 09:31:25;;;;;;;4.80;3.80;;;24.20;53.20;;;;;;4967840;28;20062;-51
2023/09/08 09:34:06;;;;;;;5.63;4.32;;;24.30;53.00;;;;;;4984579;28;20050;-46
2023/09/08 09:36:33;;;;;;;6.40;4.25;;;24.30;52.80;;;;;;4983161;28;20057;-46
2023/09/08 09:39:01;;;;;;;5.28;4.10;;;24.40;52.80;;;;;;4983952;28;20065;-45
2023/09/08 09:41:30;;;;;;;5.13;4.07;;;24.40;53.40;;;;;;4983727;28;20050;-56
2023/09/08 09:43:58;;;;;;;7.00;3.80;;;24.50;52.90;;;;;;4983086;28;20061;-44
2023/09/08 09:46:28;;;;;;;5.07;3.80;;;24.50;52.90;;;;;;4985019;28;20054;-44
2023/09/08 09:48:57;;;;;;;4.45;3.83;;;24.60;52.90;;;;;;4983784;28;20418;-44
2023/09/08 09:51:24;;;;;;;9.32;3.85;;;24.70;52.90;;;;;;4981239;28;20059;-47
2023/09/08 09:53:51;;;;;;;5.32;3.58;;;24.70;52.90;;;;;;4983745;28;20065;-46
2023/09/08 09:56:20;;;;;;;7.30;4.28;;;24.80;52.90;;;;;;4983730;28;20482;-44
2023/09/08 09:58:49;;;;;;;5.70;3.95;;;24.80;52.60;;;;;;4984281;28;20494;-45
2023/09/08 10:01:18;;;;;;;4.50;3.47;;;24.90;52.50;;;;;;4984540;28;20050;-44
2023/09/08 10:03:45;;;;;;;4.55;3.80;;;25.00;52.40;;;;;;4983927;28;20356;-45
2023/09/08 10:06:15;;;;;;;7.07;3.80;;;25.00;51.90;;;;;;4982004;28;20065;-44
2023/09/08 10:08:43;;;;;;;6.13;4.05;;;25.10;51.60;;;;;;4983860;28;20065;-46
2023/09/08 10:11:12;;;;;;;4.80;4.10;;;25.20;51.50;;;;;;4983214;28;20065;-45
2023/09/08 10:13:43;;;;;;;5.00;3.80;;;25.20;51.60;;;;;;4984130;28;20062;-46
2023/09/08 10:16:16;;;;;;;5.47;3.72;;;25.20;51.40;;;;;;4983335;28;20050;-48
2023/09/08 10:18:46;;;;;;;4.22;3.50;;;25.30;51.20;;;;;;4983776;28;20057;-47
2023/09/08 10:21:17;;;;;;;6.93;4.30;;;25.40;51.20;;;;;;4982517;28;20522;-51
2023/09/08 10:23:52;;;;;;;5.80;3.72;;;25.40;51.20;;;;;;4983341;28;20632;-47
2023/09/08 10:26:25;;;;;;;8.90;3.72;;;25.50;51.20;;;;;;4983460;28;20077;-47
2023/09/08 10:28:55;;;;;;;6.18;3.92;;;25.60;51.30;;;;;;4984208;28;20050;-48
2023/09/08 10:31:26;;;;;;;7.65;4.43;;;25.60;51.00;;;;;;4983134;28;20730;-46
2023/09/08 10:33:54;;;;;;;6.07;4.40;;;25.70;50.80;;;;;;4982926;28;20057;-47
2023/09/08 10:36:21;;;;;;;4.32;3.72;;;25.70;50.40;;;;;;4981799;28;20061;-45
2023/09/08 10:38:50;;;;;;;15.43;4.63;;;25.80;50.30;;;;;;4983592;28;20058;-48
2023/09/08 10:41:31;;;;;;;5.07;3.90;;;25.80;50.50;;;;;;4982767;28;20058;-45
2023/09/08 10:44:02;;;;;;;7.03;4.22;;;25.90;50.50;;;;;;4983105;28;20065;-55
2023/09/08 10:46:32;;;;;;;5.50;3.47;;;26.00;50.50;;;;;;4982881;28;20516;-46
2023/09/08 10:49:04;;;;;;;5.90;3.83;;;26.00;50.20;;;;;;4982430;28;20058;-49
2023/09/08 10:51:31;;;;;;;6.80;3.75;;;26.00;49.90;;;;;;4981492;28;20054;-44
2023/09/08 10:53:59;;;;;;;6.38;3.75;;;26.10;49.80;;;;;;4982333;28;20487;-47
2023/09/08 10:56:48;;;;;;;5.85;3.50;;;26.10;49.50;;;;;;4982193;28;20058;-47
2023/09/08 10:59:16;;;;;;;6.00;3.92;;;26.20;49.30;;;;;;4982165;28;20058;-44
2023/09/08 11:01:46;;;;;;;5.85;3.60;;;26.20;49.20;;;;;;4982930;28;20050;-44
2023/09/08 11:04:14;;;;;;;4.63;3.90;;;26.30;48.80;;;;;;4982604;28;20495;-44
2023/09/08 11:06:41;;;;;;;5.97;3.25;;;26.30;48.80;;;;;;4980539;28;20069;-45
2023/09/08 11:09:09;;;;;;;7.13;3.65;;;26.40;48.70;;;;;;4982350;28;20069;-47
2023/09/08 11:11:37;;;;;;;5.40;3.60;;;26.40;48.80;;;;;;4983021;28;20047;-49
2023/09/08 11:14:04;;;;;;;8.00;3.72;;;26.40;48.70;;;;;;4983485;28;20058;-46
2023/09/08 11:16:33;;;;;;;5.75;4.07;;;26.50;49.30;;;;;;4982746;28;20054;-45
2023/09/08 11:19:04;;;;;;;4.45;3.50;;;26.50;48.30;;;;;;4982883;28;20506;-45
2023/09/08 11:21:34;;;;;;;6.18;3.78;;;26.60;47.80;;;;;;4980749;28;20054;-47
2023/09/08 11:24:04;;;;;;;5.07;3.80;;;26.60;47.70;;;;;;4982005;28;20058;-46
2023/09/08 11:26:34;;;;;;;5.55;4.10;;;26.70;47.80;;;;;;4981534;28;20385;-52
2023/09/08 11:29:01;;;;;;;7.93;4.07;;;26.70;47.60;;;;;;4982881;28;20081;-53
2023/09/08 11:31:32;;;;;;;4.82;3.60;;;26.70;47.40;;;;;;4981946;28;20414;-52
2023/09/08 11:34:00;;;;;;;4.07;3.42;;;26.80;47.30;;;;;;4982334;28;20050;-52
2023/09/08 11:36:28;;;;;;;4.88;3.35;;;26.80;48.00;;;;;;4980939;28;20069;-50
2023/09/08 11:38:55;;;;;;;5.53;3.47;;;26.80;47.70;;;;;;4981264;28;20054;-55
2023/09/08 11:41:23;;;;;;;5.80;3.58;;;26.90;47.80;;;;;;4981978;28;20050;-52
2023/09/08 11:43:51;;;;;;;6.00;4.10;;;26.90;47.50;;;;;;4983284;28;20499;-53
2023/09/08 11:46:19;;;;;;;5.30;4.10;;;26.90;47.40;;;;;;4981368;28;20421;-51
2023/09/08 11:48:47;;;;;;;7.15;3.90;;;27.00;47.20;;;;;;4981961;28;20054;-49
2023/09/08 11:51:16;;;;;;;9.93;3.67;;;27.00;47.20;;;;;;4980402;28;20070;-49
2023/09/08 11:53:44;;;;;;;4.85;3.38;;;27.10;47.00;;;;;;4982051;28;20121;-49
2023/09/08 11:56:11;;;;;;;6.13;3.88;;;27.10;47.20;;;;;;4981380;28;20065;-43
2023/09/08 11:58:39;;;;;;;7.03;3.88;;;27.10;47.20;;;;;;4982649;28;20420;-52
2023/09/08 12:01:06;;;;;;;7.90;3.78;;;27.20;47.20;;;;;;4981885;28;20495;-50
2023/09/08 12:03:34;;;;;;;5.90;3.67;;;27.20;46.80;;;;;;4980751;28;20050;-55
2023/09/08 12:06:02;;;;;;;4.35;3.35;;;27.20;46.60;;;;;;4981406;28;20054;-50
2023/09/08 12:08:31;;;;;;;5.45;4.00;;;27.30;46.90;;;;;;4985311;28;20058;-50
2023/09/08 12:10:59;;;;;;;5.10;3.85;;;27.30;46.90;;;;;;4986896;28;20058;-50
2023/09/08 12:13:26;;;;;;;6.13;3.50;;;27.40;46.80;;;;;;4985023;28;20418;-48
2023/09/08 12:15:53;;;;;;;4.32;3.60;;;27.40;46.90;;;;;;4984975;28;20507;-50
2023/09/08 12:18:38;;;;;;;4.38;3.80;;;27.50;46.80;;;;;;4984944;28;20490;-50
2023/09/08 12:21:06;;;;;;;5.53;3.70;;;27.50;46.50;;;;;;4984386;28;20057;-46
2023/09/08 12:23:35;;;;;;;5.78;3.38;;;27.50;46.40;;;;;;4985952;28;20058;-50
2023/09/08 12:26:03;;;;;;;6.45;3.47;;;27.60;46.40;;;;;;4986652;28;20054;-51
2023/09/08 12:28:31;;;;;;;4.57;3.40;;;27.60;46.10;;;;;;4985249;28;20080;-49
2023/09/08 12:30:59;;;;;;;4.03;3.47;;;27.60;45.50;;;;;;4984721;28;20046;-55
2023/09/08 12:33:27;;;;;;;5.60;3.53;;;27.60;45.50;;;;;;4985386;28;20046;-52
2023/09/08 12:35:54;;;;;;;4.68;3.40;;;27.70;45.70;;;;;;4983696;28;20054;-49
2023/09/08 12:38:22;;;;;;;8.20;3.72;;;27.70;45.80;;;;;;4985113;28;20380;-47
2023/09/08 12:40:51;;;;;;;4.75;3.70;;;27.70;45.60;;;;;;4985801;28;20058;-49
2023/09/08 12:43:18;;;;;;;5.57;4.13;;;27.70;45.30;;;;;;4985385;28;20046;-47
2023/09/08 12:45:46;;;;;;;4.22;3.40;;;27.80;45.40;;;;;;4984774;28;20080;-48
2023/09/08 12:48:13;;;;;;;6.43;3.50;;;27.80;45.50;;;;;;4983435;28;20057;-46
2023/09/08 12:50:40;;;;;;;4.07;3.40;;;27.90;45.60;;;;;;4983294;28;20062;-44